sensor_id;sensor_type;location;lat;lon;timestamp;P1;durP1;ratioP1;P2;durP2;ratioP2
39016;SDS011;24784;45.582;5.276;2023-07-29T14:11:51;4.10;;;2.60;;
39016;SDS011;24784;45.582;5.276;2023-07-29T14:14:18;3.55;;;2.70;;
39016;SDS011;24784;45.582;5.276;2023-07-29T14:16:45;4.10;;;2.60;;
39016;SDS011;24784;45.582;5.276;2023-07-29T14:19:11;3.03;;;2.40;;
39016;SDS011;24784;45.582;5.276;2023-07-29T14:21:36;2.45;;;2.22;;
39016;SDS011;24784;45.582;5.276;2023-07-29T14:24:02;3.10;;;2.63;;
39016;SDS011;24784;45.582;5.276;2023-07-29T14:26:28;5.10;;;2.83;;
39016;SDS011;24784;45.582;5.276;2023-07-29T14:28:54;6.07;;;2.47;;
39016;SDS011;24784;45.582;5.276;2023-07-29T14:31:19;3.33;;;2.58;;
39016;SDS011;24784;45.582;5.276;2023-07-29T14:33:45;3.03;;;2.45;;
39016;SDS011;24784;45.582;5.276;2023-07-29T14:36:11;3.63;;;2.30;;
39016;SDS011;24784;45.582;5.276;2023-07-29T14:38:36;5.60;;;2.17;;
39016;SDS011;24784;45.582;5.276;2023-07-29T14:41:02;2.80;;;2.15;;
39016;SDS011;24784;45.582;5.276;2023-07-29T14:43:30;2.35;;;1.90;;
39016;SDS011;24784;45.582;5.276;2023-07-29T14:45:56;2.50;;;2.15;;
39016;SDS011;24784;45.582;5.276;2023-07-29T14:48:22;3.28;;;2.40;;
39016;SDS011;24784;45.582;5.276;2023-07-29T14:50:48;2.67;;;2.15;;
39016;SDS011;24784;45.582;5.276;2023-07-29T14:53:14;2.47;;;2.10;;
39016;SDS011;24784;45.582;5.276;2023-07-29T14:55:40;3.95;;;2.50;;
39016;SDS011;24784;45.582;5.276;2023-07-29T14:58:06;3.58;;;2.60;;
39016;SDS011;24784;45.582;5.276;2023-07-29T15:00:32;2.72;;;2.22;;
39016;SDS011;24784;45.582;5.276;2023-07-29T15:02:58;4.13;;;2.58;;
39016;SDS011;24784;45.582;5.276;2023-07-29T15:05:24;2.80;;;2.38;;
39016;SDS011;24784;45.582;5.276;2023-07-29T15:07:49;5.30;;;2.90;;
39016;SDS011;24784;45.582;5.276;2023-07-29T15:10:16;4.28;;;3.00;;
39016;SDS011;24784;45.582;5.276;2023-07-29T15:12:46;4.88;;;2.70;;
39016;SDS011;24784;45.582;5.276;2023-07-29T15:15:12;3.90;;;2.55;;
39016;SDS011;24784;45.582;5.276;2023-07-29T15:17:38;3.13;;;2.60;;
39016;SDS011;24784;45.582;5.276;2023-07-29T15:20:04;5.68;;;2.70;;
39016;SDS011;24784;45.582;5.276;2023-07-29T15:22:30;4.22;;;3.00;;
39016;SDS011;24784;45.582;5.276;2023-07-29T15:24:59;4.50;;;3.50;;
39016;SDS011;24784;45.582;5.276;2023-07-29T15:27:26;4.60;;;3.33;;
39016;SDS011;24784;45.582;5.276;2023-07-29T15:29:52;6.65;;;3.40;;
39016;SDS011;24784;45.582;5.276;2023-07-29T15:32:18;9.82;;;4.90;;
39016;SDS011;24784;45.582;5.276;2023-07-29T15:34:43;5.18;;;3.83;;
39016;SDS011;24784;45.582;5.276;2023-07-29T15:37:09;5.68;;;4.03;;
39016;SDS011;24784;45.582;5.276;2023-07-29T15:39:35;5.70;;;3.70;;
39016;SDS011;24784;45.582;5.276;2023-07-29T15:42:01;6.18;;;4.30;;
39016;SDS011;24784;45.582;5.276;2023-07-29T15:44:26;4.65;;;3.30;;
39016;SDS011;24784;45.582;5.276;2023-07-29T15:46:52;4.43;;;3.83;;
39016;SDS011;24784;45.582;5.276;2023-07-29T15:49:19;5.63;;;4.30;;
39016;SDS011;24784;45.582;5.276;2023-07-29T15:51:44;5.30;;;3.58;;
39016;SDS011;24784;45.582;5.276;2023-07-29T15:54:10;10.00;;;4.70;;
39016;SDS011;24784;45.582;5.276;2023-07-29T15:56:36;14.73;;;5.38;;
39016;SDS011;24784;45.582;5.276;2023-07-29T15:59:03;8.50;;;4.93;;
39016;SDS011;24784;45.582;5.276;2023-07-29T16:01:29;5.78;;;3.45;;
39016;SDS011;24784;45.582;5.276;2023-07-29T16:03:55;3.83;;;3.28;;
39016;SDS011;24784;45.582;5.276;2023-07-29T16:06:21;5.82;;;3.70;;
39016;SDS011;24784;45.582;5.276;2023-07-29T16:08:47;7.25;;;4.07;;
39016;SDS011;24784;45.582;5.276;2023-07-29T16:11:13;5.70;;;3.65;;
39016;SDS011;24784;45.582;5.276;2023-07-29T16:13:39;5.07;;;3.72;;
39016;SDS011;24784;45.582;5.276;2023-07-29T16:16:04;5.03;;;3.55;;
39016;SDS011;24784;45.582;5.276;2023-07-29T16:18:30;5.93;;;3.60;;
39016;SDS011;24784;45.582;5.276;2023-07-29T16:20:56;6.00;;;4.05;;
39016;SDS011;24784;45.582;5.276;2023-07-29T16:23:28;6.22;;;4.10;;
39016;SDS011;24784;45.582;5.276;2023-07-29T16:25:55;10.18;;;7.32;;
39016;SDS011;24784;45.582;5.276;2023-07-29T16:28:21;7.18;;;5.53;;
39016;SDS011;24784;45.582;5.276;2023-07-29T16:30:47;6.55;;;4.70;;
39016;SDS011;24784;45.582;5.276;2023-07-29T16:33:13;8.52;;;5.78;;
39016;SDS011;24784;45.582;5.276;2023-07-29T16:35:39;8.35;;;5.15;;
39016;SDS011;24784;45.582;5.276;2023-07-29T16:38:10;7.88;;;5.90;;
39016;SDS011;24784;45.582;5.276;2023-07-29T16:40:36;6.63;;;5.55;;
39016;SDS011;24784;45.582;5.276;2023-07-29T16:43:02;6.70;;;5.30;;
39016;SDS011;24784;45.582;5.276;2023-07-29T16:45:28;6.00;;;4.30;;
39016;SDS011;24784;45.582;5.276;2023-07-29T16:47:54;7.72;;;4.95;;
39016;SDS011;24784;45.582;5.276;2023-07-29T16:50:20;6.13;;;4.30;;
39016;SDS011;24784;45.582;5.276;2023-07-29T16:52:46;5.07;;;3.75;;
39016;SDS011;24784;45.582;5.276;2023-07-29T16:55:13;5.63;;;3.85;;
39016;SDS011;24784;45.582;5.276;2023-07-29T16:57:39;5.32;;;3.58;;
39016;SDS011;24784;45.582;5.276;2023-07-29T17:00:05;4.68;;;3.75;;
39016;SDS011;24784;45.582;5.276;2023-07-29T17:02:32;6.35;;;4.00;;
39016;SDS011;24784;45.582;5.276;2023-07-29T17:04:57;5.05;;;4.18;;
39016;SDS011;24784;45.582;5.276;2023-07-29T17:07:24;5.85;;;3.65;;
39016;SDS011;24784;45.582;5.276;2023-07-29T17:09:50;6.55;;;3.80;;
39016;SDS011;24784;45.582;5.276;2023-07-29T17:12:17;4.40;;;3.70;;
39016;SDS011;24784;45.582;5.276;2023-07-29T17:14:43;4.28;;;3.40;;
39016;SDS011;24784;45.582;5.276;2023-07-29T17:17:09;7.22;;;3.75;;
39016;SDS011;24784;45.582;5.276;2023-07-29T17:19:35;7.25;;;4.22;;
39016;SDS011;24784;45.582;5.276;2023-07-29T17:22:01;4.32;;;3.65;;
39016;SDS011;24784;45.582;5.276;2023-07-29T17:24:27;4.88;;;4.38;;
39016;SDS011;24784;45.582;5.276;2023-07-29T17:26:53;4.90;;;4.05;;
39016;SDS011;24784;45.582;5.276;2023-07-29T17:29:18;7.28;;;4.28;;
39016;SDS011;24784;45.582;5.276;2023-07-29T17:31:44;4.97;;;3.83;;
39016;SDS011;24784;45.582;5.276;2023-07-29T17:34:10;7.47;;;4.38;;
39016;SDS011;24784;45.582;5.276;2023-07-29T17:36:39;6.15;;;3.78;;
39016;SDS011;24784;45.582;5.276;2023-07-29T17:39:05;4.32;;;2.88;;
39016;SDS011;24784;45.582;5.276;2023-07-29T17:41:31;5.32;;;2.90;;
39016;SDS011;24784;45.582;5.276;2023-07-29T17:43:57;4.25;;;2.83;;
39016;SDS011;24784;45.582;5.276;2023-07-29T17:46:23;3.92;;;2.78;;
39016;SDS011;24784;45.582;5.276;2023-07-29T17:48:49;6.47;;;2.85;;
39016;SDS011;24784;45.582;5.276;2023-07-29T17:51:15;2.85;;;2.53;;
39016;SDS011;24784;45.582;5.276;2023-07-29T17:53:41;4.47;;;2.80;;
39016;SDS011;24784;45.582;5.276;2023-07-29T17:56:07;2.90;;;2.60;;
39016;SDS011;24784;45.582;5.276;2023-07-29T17:58:34;3.22;;;2.63;;
39016;SDS011;24784;45.582;5.276;2023-07-29T18:01:01;3.95;;;2.70;;
39016;SDS011;24784;45.582;5.276;2023-07-29T18:03:30;4.28;;;3.15;;
39016;SDS011;24784;45.582;5.276;2023-07-29T18:05:56;4.25;;;2.80;;
39016;SDS011;24784;45.582;5.276;2023-07-29T18:08:22;4.30;;;3.17;;
39016;SDS011;24784;45.582;5.276;2023-07-29T18:10:48;8.45;;;3.17;;
39016;SDS011;24784;45.582;5.276;2023-07-29T18:13:15;4.05;;;2.95;;
39016;SDS011;24784;45.582;5.276;2023-07-29T18:15:41;5.85;;;3.10;;
39016;SDS011;24784;45.582;5.276;2023-07-29T18:18:07;4.00;;;2.30;;
39016;SDS011;24784;45.582;5.276;2023-07-29T18:20:33;3.63;;;3.20;;
39016;SDS011;24784;45.582;5.276;2023-07-29T18:23:00;4.55;;;2.95;;
39016;SDS011;24784;45.582;5.276;2023-07-29T18:25:30;3.60;;;2.90;;
39016;SDS011;24784;45.582;5.276;2023-07-29T18:27:57;3.63;;;2.97;;
39016;SDS011;24784;45.582;5.276;2023-07-29T18:30:23;5.60;;;3.30;;
39016;SDS011;24784;45.582;5.276;2023-07-29T18:32:49;9.73;;;3.58;;
39016;SDS011;24784;45.582;5.276;2023-07-29T18:35:15;5.07;;;3.55;;
39016;SDS011;24784;45.582;5.276;2023-07-29T18:37:44;4.68;;;3.25;;
39016;SDS011;24784;45.582;5.276;2023-07-29T18:40:11;5.57;;;2.95;;
39016;SDS011;24784;45.582;5.276;2023-07-29T18:42:37;5.43;;;3.50;;
39016;SDS011;24784;45.582;5.276;2023-07-29T18:45:03;3.92;;;3.08;;
39016;SDS011;24784;45.582;5.276;2023-07-29T18:47:29;4.72;;;3.70;;
39016;SDS011;24784;45.582;5.276;2023-07-29T18:49:55;4.78;;;3.33;;
39016;SDS011;24784;45.582;5.276;2023-07-29T18:52:23;7.15;;;2.88;;
39016;SDS011;24784;45.582;5.276;2023-07-29T18:54:49;3.17;;;2.88;;
39016;SDS011;24784;45.582;5.276;2023-07-29T18:57:16;3.88;;;2.83;;
39016;SDS011;24784;45.582;5.276;2023-07-29T18:59:42;6.25;;;2.97;;
39016;SDS011;24784;45.582;5.276;2023-07-29T19:02:08;5.47;;;2.83;;
39016;SDS011;24784;45.582;5.276;2023-07-29T19:04:34;4.35;;;2.83;;
39016;SDS011;24784;45.582;5.276;2023-07-29T19:07:00;3.30;;;3.00;;
39016;SDS011;24784;45.582;5.276;2023-07-29T19:09:26;3.95;;;3.28;;
39016;SDS011;24784;45.582;5.276;2023-07-29T19:11:52;3.95;;;3.15;;
39016;SDS011;24784;45.582;5.276;2023-07-29T19:14:18;5.97;;;3.13;;
39016;SDS011;24784;45.582;5.276;2023-07-29T19:16:44;5.55;;;3.10;;
39016;SDS011;24784;45.582;5.276;2023-07-29T19:19:10;4.53;;;3.03;;
39016;SDS011;24784;45.582;5.276;2023-07-29T19:21:35;5.05;;;3.15;;
39016;SDS011;24784;45.582;5.276;2023-07-29T19:24:01;8.10;;;3.83;;
39016;SDS011;24784;45.582;5.276;2023-07-29T19:26:27;3.90;;;3.10;;
39016;SDS011;24784;45.582;5.276;2023-07-29T19:28:53;5.22;;;4.05;;
39016;SDS011;24784;45.582;5.276;2023-07-29T19:31:19;4.22;;;3.13;;
39016;SDS011;24784;45.582;5.276;2023-07-29T19:33:45;4.40;;;3.20;;
39016;SDS011;24784;45.582;5.276;2023-07-29T19:36:11;3.83;;;3.17;;
39016;SDS011;24784;45.582;5.276;2023-07-29T19:38:37;5.93;;;3.72;;
39016;SDS011;24784;45.582;5.276;2023-07-29T19:41:04;4.47;;;3.10;;
39016;SDS011;24784;45.582;5.276;2023-07-29T19:43:31;4.22;;;3.42;;
39016;SDS011;24784;45.582;5.276;2023-07-29T19:45:57;4.43;;;3.05;;
39016;SDS011;24784;45.582;5.276;2023-07-29T19:48:24;5.18;;;3.47;;
39016;SDS011;24784;45.582;5.276;2023-07-29T19:50:51;5.65;;;4.05;;
39016;SDS011;24784;45.582;5.276;2023-07-29T19:53:17;4.43;;;3.30;;
39016;SDS011;24784;45.582;5.276;2023-07-29T19:55:44;5.07;;;3.50;;
39016;SDS011;24784;45.582;5.276;2023-07-29T19:58:15;5.35;;;3.30;;
39016;SDS011;24784;45.582;5.276;2023-07-29T20:00:42;4.28;;;3.50;;
39016;SDS011;24784;45.582;5.276;2023-07-29T20:03:10;7.00;;;3.67;;
39016;SDS011;24784;45.582;5.276;2023-07-29T20:05:36;7.38;;;3.58;;
39016;SDS011;24784;45.582;5.276;2023-07-29T20:08:01;6.30;;;3.65;;
39016;SDS011;24784;45.582;5.276;2023-07-29T20:10:27;7.35;;;4.65;;
39016;SDS011;24784;45.582;5.276;2023-07-29T20:12:53;11.85;;;3.83;;
39016;SDS011;24784;45.582;5.276;2023-07-29T20:15:19;7.70;;;4.20;;
39016;SDS011;24784;45.582;5.276;2023-07-29T20:17:44;7.82;;;3.95;;
39016;SDS011;24784;45.582;5.276;2023-07-29T20:20:10;3.67;;;3.30;;
39016;SDS011;24784;45.582;5.276;2023-07-29T20:22:36;3.67;;;3.38;;
39016;SDS011;24784;45.582;5.276;2023-07-29T20:25:02;4.22;;;3.65;;
39016;SDS011;24784;45.582;5.276;2023-07-29T20:27:28;5.55;;;4.00;;
39016;SDS011;24784;45.582;5.276;2023-07-29T20:29:53;5.93;;;3.88;;
39016;SDS011;24784;45.582;5.276;2023-07-29T20:32:19;5.13;;;3.97;;
39016;SDS011;24784;45.582;5.276;2023-07-29T20:34:45;5.47;;;3.50;;
39016;SDS011;24784;45.582;5.276;2023-07-29T20:37:11;8.43;;;3.83;;
39016;SDS011;24784;45.582;5.276;2023-07-29T20:39:36;6.00;;;3.55;;
39016;SDS011;24784;45.582;5.276;2023-07-29T20:42:02;6.65;;;3.83;;
39016;SDS011;24784;45.582;5.276;2023-07-29T20:44:28;4.78;;;3.83;;
39016;SDS011;24784;45.582;5.276;2023-07-29T20:46:54;7.53;;;4.20;;
39016;SDS011;24784;45.582;5.276;2023-07-29T20:49:20;6.25;;;3.80;;
39016;SDS011;24784;45.582;5.276;2023-07-29T20:51:51;6.55;;;4.00;;
39016;SDS011;24784;45.582;5.276;2023-07-29T20:54:17;5.43;;;4.00;;
39016;SDS011;24784;45.582;5.276;2023-07-29T20:56:43;6.18;;;4.10;;
39016;SDS011;24784;45.582;5.276;2023-07-29T20:59:09;6.53;;;3.83;;
39016;SDS011;24784;45.582;5.276;2023-07-29T21:01:36;5.85;;;3.90;;
39016;SDS011;24784;45.582;5.276;2023-07-29T21:04:08;5.40;;;4.10;;
39016;SDS011;24784;45.582;5.276;2023-07-29T21:06:37;6.13;;;4.65;;
39016;SDS011;24784;45.582;5.276;2023-07-29T21:09:03;6.47;;;3.63;;
39016;SDS011;24784;45.582;5.276;2023-07-29T21:11:29;7.65;;;3.80;;
39016;SDS011;24784;45.582;5.276;2023-07-29T21:13:55;5.65;;;4.10;;
39016;SDS011;24784;45.582;5.276;2023-07-29T21:16:20;4.10;;;3.65;;
39016;SDS011;24784;45.582;5.276;2023-07-29T21:18:46;5.05;;;3.95;;
39016;SDS011;24784;45.582;5.276;2023-07-29T21:21:13;4.07;;;3.50;;
39016;SDS011;24784;45.582;5.276;2023-07-29T21:23:39;5.15;;;3.40;;
39016;SDS011;24784;45.582;5.276;2023-07-29T21:26:04;7.28;;;3.75;;
39016;SDS011;24784;45.582;5.276;2023-07-29T21:28:30;7.70;;;4.13;;
39016;SDS011;24784;45.582;5.276;2023-07-29T21:30:56;4.82;;;3.90;;
39016;SDS011;24784;45.582;5.276;2023-07-29T21:33:22;7.55;;;3.97;;
39016;SDS011;24784;45.582;5.276;2023-07-29T21:35:48;5.93;;;3.97;;
39016;SDS011;24784;45.582;5.276;2023-07-29T21:38:14;5.82;;;4.10;;
39016;SDS011;24784;45.582;5.276;2023-07-29T21:40:40;7.03;;;4.25;;
39016;SDS011;24784;45.582;5.276;2023-07-29T21:43:06;6.00;;;4.45;;
39016;SDS011;24784;45.582;5.276;2023-07-29T21:45:33;4.10;;;3.70;;
39016;SDS011;24784;45.582;5.276;2023-07-29T21:47:59;6.07;;;4.18;;
39016;SDS011;24784;45.582;5.276;2023-07-29T21:50:25;6.32;;;3.80;;
39016;SDS011;24784;45.582;5.276;2023-07-29T21:52:50;6.72;;;3.85;;
39016;SDS011;24784;45.582;5.276;2023-07-29T21:55:16;8.80;;;4.05;;
39016;SDS011;24784;45.582;5.276;2023-07-29T21:57:43;7.80;;;4.03;;
39016;SDS011;24784;45.582;5.276;2023-07-29T22:00:09;6.47;;;3.90;;
39016;SDS011;24784;45.582;5.276;2023-07-29T22:02:35;7.35;;;4.35;;
39016;SDS011;24784;45.582;5.276;2023-07-29T22:05:00;7.20;;;4.45;;
39016;SDS011;24784;45.582;5.276;2023-07-29T22:07:26;6.32;;;4.22;;
39016;SDS011;24784;45.582;5.276;2023-07-29T22:09:52;5.25;;;3.70;;
39016;SDS011;24784;45.582;5.276;2023-07-29T22:12:18;4.65;;;3.78;;
39016;SDS011;24784;45.582;5.276;2023-07-29T22:14:43;4.00;;;3.60;;
39016;SDS011;24784;45.582;5.276;2023-07-29T22:17:10;6.40;;;3.70;;
39016;SDS011;24784;45.582;5.276;2023-07-29T22:19:35;5.78;;;4.10;;
39016;SDS011;24784;45.582;5.276;2023-07-29T22:22:02;4.45;;;3.85;;
39016;SDS011;24784;45.582;5.276;2023-07-29T22:24:28;7.53;;;4.72;;
39016;SDS011;24784;45.582;5.276;2023-07-29T22:26:54;5.57;;;4.28;;
39016;SDS011;24784;45.582;5.276;2023-07-29T22:29:20;4.60;;;4.18;;
39016;SDS011;24784;45.582;5.276;2023-07-29T22:31:45;6.53;;;4.22;;
39016;SDS011;24784;45.582;5.276;2023-07-29T22:34:11;6.70;;;4.28;;
39016;SDS011;24784;45.582;5.276;2023-07-29T22:36:38;7.15;;;4.35;;
39016;SDS011;24784;45.582;5.276;2023-07-29T22:39:04;5.25;;;3.72;;
39016;SDS011;24784;45.582;5.276;2023-07-29T22:41:30;6.47;;;4.32;;
39016;SDS011;24784;45.582;5.276;2023-07-29T22:43:55;6.50;;;4.20;;
39016;SDS011;24784;45.582;5.276;2023-07-29T22:46:21;7.68;;;4.28;;
39016;SDS011;24784;45.582;5.276;2023-07-29T22:48:47;5.57;;;3.95;;
39016;SDS011;24784;45.582;5.276;2023-07-29T22:51:13;6.13;;;4.20;;
39016;SDS011;24784;45.582;5.276;2023-07-29T22:53:39;5.88;;;4.32;;
39016;SDS011;24784;45.582;5.276;2023-07-29T22:56:04;7.45;;;4.07;;
39016;SDS011;24784;45.582;5.276;2023-07-29T22:58:30;6.15;;;4.97;;
39016;SDS011;24784;45.582;5.276;2023-07-29T23:00:56;6.22;;;4.43;;
39016;SDS011;24784;45.582;5.276;2023-07-29T23:03:22;8.15;;;4.35;;
39016;SDS011;24784;45.582;5.276;2023-07-29T23:05:49;6.35;;;4.28;;
39016;SDS011;24784;45.582;5.276;2023-07-29T23:08:15;6.95;;;4.38;;
39016;SDS011;24784;45.582;5.276;2023-07-29T23:10:41;5.78;;;4.13;;
39016;SDS011;24784;45.582;5.276;2023-07-29T23:13:07;5.95;;;4.30;;
39016;SDS011;24784;45.582;5.276;2023-07-29T23:15:33;6.85;;;4.50;;
39016;SDS011;24784;45.582;5.276;2023-07-29T23:18:00;7.65;;;4.55;;
39016;SDS011;24784;45.582;5.276;2023-07-29T23:20:26;5.15;;;4.45;;
39016;SDS011;24784;45.582;5.276;2023-07-29T23:22:52;10.02;;;4.45;;
39016;SDS011;24784;45.582;5.276;2023-07-29T23:25:18;5.28;;;4.40;;
39016;SDS011;24784;45.582;5.276;2023-07-29T23:27:44;8.00;;;4.65;;
39016;SDS011;24784;45.582;5.276;2023-07-29T23:30:09;8.30;;;4.90;;
39016;SDS011;24784;45.582;5.276;2023-07-29T23:32:35;11.18;;;4.63;;
39016;SDS011;24784;45.582;5.276;2023-07-29T23:35:01;7.18;;;4.47;;
39016;SDS011;24784;45.582;5.276;2023-07-29T23:37:27;7.38;;;4.85;;
39016;SDS011;24784;45.582;5.276;2023-07-29T23:39:52;6.40;;;4.80;;
39016;SDS011;24784;45.582;5.276;2023-07-29T23:42:18;7.82;;;4.90;;
39016;SDS011;24784;45.582;5.276;2023-07-29T23:44:44;11.98;;;5.00;;
39016;SDS011;24784;45.582;5.276;2023-07-29T23:47:09;6.60;;;4.85;;
39016;SDS011;24784;45.582;5.276;2023-07-29T23:49:35;5.22;;;4.65;;
39016;SDS011;24784;45.582;5.276;2023-07-29T23:52:01;10.60;;;5.13;;
39016;SDS011;24784;45.582;5.276;2023-07-29T23:54:27;6.00;;;4.30;;
39016;SDS011;24784;45.582;5.276;2023-07-29T23:56:53;6.57;;;4.47;;
39016;SDS011;24784;45.582;5.276;2023-07-29T23:59:18;5.70;;;4.32;;
